Time;durP1;ratioP1;P1;durP2;ratioP2;P2;SDS_P1;SDS_P2;PMS_P1;PMS_P2;Temp;Humidity;BMP_temperature;BMP_pressure;BME280_temperature;BME280_humidity;BME280_pressure;Samples;Min_cycle;Max_cycle;Signal;HPM_P1;HPM_P2
2023/09/26 00:00:21;;;;;;;6.67;4.50;;;;;;;;;;6206691;28;20205;-70
2023/09/26 00:03:22;;;;;;;5.10;4.53;;;;;;;;;;6230958;28;20211;-71
2023/09/26 00:06:24;;;;;;;9.67;5.17;;;;;;;;;;6220497;28;20195;-71
2023/09/26 00:09:27;;;;;;;8.20;4.73;;;;;;;;;;6217209;28;20192;-70
2023/09/26 00:12:28;;;;;;;8.17;5.50;;;;;;;;;;6211553;28;20195;-71
2023/09/26 00:15:29;;;;;;;4.87;4.47;;;;;;;;;;6199130;28;20286;-71
2023/09/26 00:18:31;;;;;;;4.63;4.23;;;;;;;;;;6207762;28;20199;-71
2023/09/26 00:21:32;;;;;;;4.83;4.33;;;;;;;;;;6213695;28;20202;-71
2023/09/26 00:24:34;;;;;;;5.30;4.50;;;;;;;;;;6228961;28;20212;-71
2023/09/26 00:27:35;;;;;;;8.20;4.60;;;;;;;;;;6201016;28;20192;-71
2023/09/26 00:30:36;;;;;;;5.93;4.83;;;;;;;;;;6213270;28;20218;-71
2023/09/26 00:33:37;;;;;;;8.53;5.20;;;;;;;;;;6199823;28;20200;-71
2023/09/26 00:36:38;;;;;;;6.53;4.63;;;;;;;;;;6194193;28;20335;-71
2023/09/26 00:39:39;;;;;;;4.80;4.30;;;;;;;;;;6196308;28;20196;-71
2023/09/26 00:42:40;;;;;;;6.73;4.33;;;;;;;;;;6207252;28;20290;-71
2023/09/26 00:45:41;;;;;;;5.53;4.70;;;;;;;;;;6217878;28;20191;-71
2023/09/26 00:48:43;;;;;;;9.47;5.67;;;;;;;;;;6201224;28;20282;-71
2023/09/26 00:51:44;;;;;;;7.67;5.03;;;;;;;;;;6205297;28;20287;-71
2023/09/26 00:54:45;;;;;;;5.83;4.63;;;;;;;;;;6206657;28;20207;-71
2023/09/26 00:57:46;;;;;;;11.97;5.30;;;;;;;;;;6211163;28;20245;-71
2023/09/26 01:00:49;;;;;;;7.97;5.17;;;;;;;;;;6208547;28;20285;-71
2023/09/26 01:03:51;;;;;;;6.73;4.97;;;;;;;;;;6220246;28;20208;-71
2023/09/26 01:06:52;;;;;;;8.97;5.17;;;;;;;;;;6198026;28;20202;-71
2023/09/26 01:09:53;;;;;;;9.80;5.40;;;;;;;;;;6208647;28;20191;-71
2023/09/26 01:12:54;;;;;;;7.63;5.90;;;;;;;;;;6204870;28;20200;-71
2023/09/26 01:15:55;;;;;;;10.53;6.30;;;;;;;;;;6223922;28;20279;-71
2023/09/26 01:18:56;;;;;;;9.90;5.20;;;;;;;;;;6197262;28;20191;-71
2023/09/26 01:21:58;;;;;;;8.93;5.23;;;;;;;;;;6204617;28;20204;-71
2023/09/26 01:25:00;;;;;;;7.90;5.97;;;;;;;;;;6202704;28;20238;-72
2023/09/26 01:28:06;;;;;;;6.30;5.63;;;;;;;;;;6207475;28;20192;-72
2023/09/26 01:31:08;;;;;;;6.00;5.40;;;;;;;;;;6203619;28;20189;-71
2023/09/26 01:34:09;;;;;;;6.73;6.03;;;;;;;;;;6225564;28;20210;-72
2023/09/26 01:37:10;;;;;;;6.27;5.57;;;;;;;;;;6225430;28;20281;-71
2023/09/26 01:40:12;;;;;;;6.97;5.03;;;;;;;;;;6208955;28;20244;-71
2023/09/26 01:43:13;;;;;;;6.87;5.10;;;;;;;;;;6207379;28;20215;-72
2023/09/26 01:46:15;;;;;;;12.47;5.93;;;;;;;;;;6198445;28;20310;-72
2023/09/26 01:49:16;;;;;;;7.40;5.50;;;;;;;;;;6211238;28;20207;-72
2023/09/26 01:52:17;;;;;;;7.77;5.00;;;;;;;;;;6217807;28;20203;-72
2023/09/26 01:55:19;;;;;;;8.87;5.43;;;;;;;;;;6206384;28;20205;-72
2023/09/26 01:58:20;;;;;;;11.47;6.20;;;;;;;;;;6233386;28;20230;-72
2023/09/26 02:01:21;;;;;;;7.33;5.47;;;;;;;;;;6216149;28;20234;-71
2023/09/26 02:04:22;;;;;;;8.03;5.90;;;;;;;;;;6209271;28;20214;-72
2023/09/26 02:07:23;;;;;;;6.77;4.97;;;;;;;;;;6199497;28;20262;-72
2023/09/26 02:10:24;;;;;;;12.00;5.77;;;;;;;;;;6207073;28;20183;-72
2023/09/26 02:13:25;;;;;;;7.03;5.67;;;;;;;;;;6211040;28;20203;-72
2023/09/26 02:16:26;;;;;;;8.60;5.90;;;;;;;;;;6201446;28;20199;-72
2023/09/26 02:19:27;;;;;;;8.40;5.63;;;;;;;;;;6206742;28;20226;-72
2023/09/26 02:22:28;;;;;;;6.50;5.47;;;;;;;;;;6206821;28;20218;-71
2023/09/26 02:25:30;;;;;;;9.57;6.00;;;;;;;;;;6230311;28;20237;-71
2023/09/26 02:28:31;;;;;;;7.97;5.30;;;;;;;;;;6204070;28;20199;-72
2023/09/26 02:31:32;;;;;;;6.73;5.27;;;;;;;;;;6202834;28;20200;-72
2023/09/26 02:34:33;;;;;;;7.40;5.50;;;;;;;;;;6207467;28;20260;-72
2023/09/26 02:37:34;;;;;;;8.93;6.27;;;;;;;;;;6192712;28;20199;-72
2023/09/26 02:40:35;;;;;;;8.83;5.73;;;;;;;;;;6204251;28;20211;-71
2023/09/26 02:43:36;;;;;;;7.03;5.83;;;;;;;;;;6203359;28;20211;-72
2023/09/26 02:46:37;;;;;;;12.53;5.50;;;;;;;;;;6208631;28;20198;-72
2023/09/26 02:49:38;;;;;;;6.53;5.80;;;;;;;;;;6204159;28;20195;-72
2023/09/26 02:52:41;;;;;;;7.53;5.37;;;;;;;;;;6201831;28;20231;-71
2023/09/26 02:55:43;;;;;;;8.27;5.23;;;;;;;;;;6213571;28;20191;-72
2023/09/26 02:58:44;;;;;;;7.33;5.00;;;;;;;;;;6205039;28;20511;-72
2023/09/26 03:01:45;;;;;;;7.90;5.30;;;;;;;;;;6215001;28;20210;-72
2023/09/26 03:04:49;;;;;;;8.33;5.60;;;;;;;;;;6208550;28;20215;-72
2023/09/26 03:07:50;;;;;;;11.33;6.43;;;;;;;;;;6211670;28;20196;-71
2023/09/26 03:10:51;;;;;;;10.60;5.33;;;;;;;;;;6212614;28;20221;-72
2023/09/26 03:13:53;;;;;;;6.03;5.43;;;;;;;;;;6208653;28;20218;-72
2023/09/26 03:16:54;;;;;;;7.37;5.80;;;;;;;;;;6206136;28;20290;-71
2023/09/26 03:19:55;;;;;;;8.47;6.07;;;;;;;;;;6221548;28;20275;-72
2023/09/26 03:22:56;;;;;;;7.90;5.53;;;;;;;;;;6204336;28;20215;-72
2023/09/26 03:25:57;;;;;;;8.03;5.53;;;;;;;;;;6199749;28;20231;-73
2023/09/26 03:28:58;;;;;;;7.53;5.17;;;;;;;;;;6207358;28;20183;-72
2023/09/26 03:31:59;;;;;;;8.50;5.50;;;;;;;;;;6201479;28;20191;-71
2023/09/26 03:35:00;;;;;;;9.67;5.60;;;;;;;;;;6211136;28;20191;-71
2023/09/26 03:38:01;;;;;;;6.97;6.03;;;;;;;;;;6206528;28;20260;-72
2023/09/26 03:41:03;;;;;;;8.97;5.83;;;;;;;;;;6206047;28;20194;-70
2023/09/26 03:44:05;;;;;;;9.40;5.33;;;;;;;;;;6228411;28;20303;-70
2023/09/26 03:47:06;;;;;;;6.37;5.07;;;;;;;;;;6207003;28;20194;-70
2023/09/26 03:50:07;;;;;;;8.63;5.50;;;;;;;;;;6215412;28;20188;-70
2023/09/26 03:53:08;;;;;;;6.80;5.90;;;;;;;;;;6212780;28;20195;-70
2023/09/26 03:56:10;;;;;;;8.37;6.03;;;;;;;;;;6203471;28;20274;-70
2023/09/26 03:59:12;;;;;;;13.57;6.87;;;;;;;;;;6209172;28;20191;-70
2023/09/26 04:02:13;;;;;;;10.57;6.70;;;;;;;;;;6201703;28;20211;-68
2023/09/26 04:05:14;;;;;;;7.13;6.43;;;;;;;;;;6213359;28;20195;-69
2023/09/26 04:08:15;;;;;;;6.67;5.83;;;;;;;;;;6222852;28;20372;-69
2023/09/26 04:11:17;;;;;;;9.73;7.13;;;;;;;;;;6222807;28;20280;-69
2023/09/26 04:14:18;;;;;;;10.40;7.30;;;;;;;;;;6223634;28;20195;-68
2023/09/26 04:17:19;;;;;;;8.00;7.23;;;;;;;;;;6190046;28;20195;-68
2023/09/26 04:20:20;;;;;;;10.70;6.80;;;;;;;;;;6224347;28;20197;-73
2023/09/26 04:23:21;;;;;;;9.70;6.97;;;;;;;;;;6212644;28;20226;-69
2023/09/26 04:26:25;;;;;;;8.30;7.13;;;;;;;;;;6201154;28;20231;-68
2023/09/26 04:29:27;;;;;;;9.80;7.40;;;;;;;;;;6200399;28;20311;-73
2023/09/26 04:32:28;;;;;;;10.07;6.70;;;;;;;;;;6217180;28;20223;-72
2023/09/26 04:35:29;;;;;;;10.33;7.20;;;;;;;;;;6214551;28;20225;-73
2023/09/26 04:38:30;;;;;;;14.27;7.40;;;;;;;;;;6210705;28;20282;-73
2023/09/26 04:41:31;;;;;;;9.03;7.00;;;;;;;;;;6212289;28;20231;-73
2023/09/26 04:44:32;;;;;;;10.60;7.23;;;;;;;;;;6205224;28;20223;-73
2023/09/26 04:47:33;;;;;;;13.17;6.93;;;;;;;;;;6224239;28;20214;-72
2023/09/26 04:50:34;;;;;;;9.10;6.73;;;;;;;;;;6220449;28;20187;-73
2023/09/26 04:53:35;;;;;;;7.43;6.57;;;;;;;;;;6219158;28;20198;-73
2023/09/26 04:56:36;;;;;;;8.80;6.33;;;;;;;;;;6206568;28;20194;-73
2023/09/26 04:59:37;;;;;;;10.90;6.43;;;;;;;;;;6204699;28;20199;-73
2023/09/26 05:02:38;;;;;;;8.03;7.00;;;;;;;;;;6221048;28;20218;-72
2023/09/26 05:05:40;;;;;;;12.43;6.43;;;;;;;;;;6227659;28;20202;-71
2023/09/26 05:08:41;;;;;;;8.23;6.30;;;;;;;;;;6198444;28;20195;-71
2023/09/26 05:11:42;;;;;;;8.37;7.10;;;;;;;;;;6226015;28;20242;-72
2023/09/26 05:14:43;;;;;;;10.27;6.47;;;;;;;;;;6206654;28;20253;-71
2023/09/26 05:17:54;;;;;;;8.43;6.30;;;;;;;;;;6236027;28;20229;-72
2023/09/26 05:20:56;;;;;;;7.57;6.13;;;;;;;;;;6226069;28;20199;-72
2023/09/26 05:23:57;;;;;;;8.13;6.10;;;;;;;;;;6207864;28;20298;-72
2023/09/26 05:26:58;;;;;;;11.40;7.03;;;;;;;;;;6206411;28;20303;-72
2023/09/26 05:29:59;;;;;;;7.57;6.57;;;;;;;;;;6220126;28;20203;-71
2023/09/26 05:33:00;;;;;;;10.50;6.50;;;;;;;;;;6214418;28;20195;-72
2023/09/26 05:36:01;;;;;;;8.17;6.67;;;;;;;;;;6213820;28;20195;-72
2023/09/26 05:39:02;;;;;;;10.60;7.10;;;;;;;;;;6202426;28;20192;-72
2023/09/26 05:42:03;;;;;;;10.97;6.87;;;;;;;;;;6221638;28;20214;-72
2023/09/26 05:45:05;;;;;;;8.87;7.10;;;;;;;;;;6220126;28;20215;-72
2023/09/26 05:48:06;;;;;;;10.23;7.10;;;;;;;;;;6221450;28;20187;-72
2023/09/26 05:51:07;;;;;;;7.60;6.90;;;;;;;;;;6209822;28;20282;-72
2023/09/26 05:54:08;;;;;;;10.03;8.70;;;;;;;;;;6201204;28;20207;-72
2023/09/26 05:57:09;;;;;;;11.03;7.60;;;;;;;;;;6198584;28;20203;-72
2023/09/26 06:00:15;;;;;;;9.57;7.57;;;;;;;;;;6202936;28;20183;-72
2023/09/26 06:03:16;;;;;;;9.30;7.20;;;;;;;;;;6217797;28;20216;-72
2023/09/26 06:06:17;;;;;;;10.03;8.23;;;;;;;;;;6209626;28;20311;-72
2023/09/26 06:09:18;;;;;;;12.47;7.80;;;;;;;;;;6197250;28;20195;-72
2023/09/26 06:12:19;;;;;;;8.87;7.30;;;;;;;;;;6213272;28;20195;-72
2023/09/26 06:15:20;;;;;;;8.50;7.70;;;;;;;;;;6193207;28;20195;-72
2023/09/26 06:18:21;;;;;;;9.43;8.20;;;;;;;;;;6214881;28;20194;-72
2023/09/26 06:21:23;;;;;;;8.83;7.60;;;;;;;;;;6207870;28;20200;-72
2023/09/26 06:24:24;;;;;;;11.60;8.47;;;;;;;;;;6197285;28;20210;-72
2023/09/26 06:27:25;;;;;;;11.67;8.93;;;;;;;;;;6235123;28;20257;-72
2023/09/26 06:30:26;;;;;;;9.53;8.47;;;;;;;;;;6191389;28;20278;-72
2023/09/26 06:33:27;;;;;;;10.63;8.63;;;;;;;;;;6204812;28;20259;-72
2023/09/26 06:36:31;;;;;;;8.67;7.77;;;;;;;;;;6213124;28;20194;-72
2023/09/26 06:39:32;;;;;;;9.60;8.60;;;;;;;;;;6236135;28;20341;-72
2023/09/26 06:42:34;;;;;;;8.67;7.77;;;;;;;;;;6200655;28;20273;-72
2023/09/26 06:45:37;;;;;;;8.20;7.40;;;;;;;;;;6224782;28;20187;-72
2023/09/26 06:48:38;;;;;;;7.73;7.03;;;;;;;;;;6208656;28;20195;-72
2023/09/26 06:51:39;;;;;;;7.13;6.43;;;;;;;;;;6201673;28;20196;-72
2023/09/26 06:54:40;;;;;;;7.53;6.83;;;;;;;;;;6210805;28;20191;-72
2023/09/26 06:57:41;;;;;;;8.23;7.17;;;;;;;;;;6214386;28;20256;-72
2023/09/26 07:00:42;;;;;;;8.90;8.00;;;;;;;;;;6234513;28;20191;-72
2023/09/26 07:03:43;;;;;;;12.43;8.67;;;;;;;;;;6200751;28;20207;-72
2023/09/26 07:06:45;;;;;;;9.03;8.23;;;;;;;;;;6222546;28;20194;-72
2023/09/26 07:09:46;;;;;;;10.07;7.83;;;;;;;;;;6205786;28;20196;-72
2023/09/26 07:12:47;;;;;;;10.30;7.80;;;;;;;;;;6210741;28;20203;-72
2023/09/26 07:15:58;;;;;;;8.20;7.30;;;;;;;;;;6202145;28;20227;-72
2023/09/26 07:18:59;;;;;;;8.07;7.23;;;;;;;;;;6212540;28;20197;-72
2023/09/26 07:22:00;;;;;;;11.47;8.63;;;;;;;;;;6193164;28;20196;-72
2023/09/26 07:25:03;;;;;;;8.53;7.43;;;;;;;;;;6213234;28;20239;-72
2023/09/26 07:28:05;;;;;;;9.67;7.97;;;;;;;;;;6206801;28;20249;-72
2023/09/26 07:31:08;;;;;;;8.00;7.30;;;;;;;;;;6194136;28;20315;-72
2023/09/26 07:34:09;;;;;;;7.97;7.17;;;;;;;;;;6213776;28;20259;-72
2023/09/26 07:37:11;;;;;;;8.40;7.50;;;;;;;;;;6212850;28;20223;-72
2023/09/26 07:40:12;;;;;;;7.10;6.40;;;;;;;;;;6226896;28;20197;-72
2023/09/26 07:43:13;;;;;;;8.73;7.07;;;;;;;;;;6218059;28;20216;-72
2023/09/26 07:46:14;;;;;;;8.53;7.00;;;;;;;;;;6210875;28;20259;-72
2023/09/26 07:49:15;;;;;;;8.47;7.67;;;;;;;;;;6200078;28;20263;-72
2023/09/26 07:52:17;;;;;;;8.87;7.53;;;;;;;;;;6222483;28;20201;-72
2023/09/26 07:55:18;;;;;;;9.17;7.83;;;;;;;;;;6197578;28;20273;-72
2023/09/26 07:58:20;;;;;;;8.43;7.63;;;;;;;;;;6207557;28;20270;-72
2023/09/26 08:01:21;;;;;;;8.07;7.27;;;;;;;;;;6205847;28;20291;-72
2023/09/26 08:04:22;;;;;;;10.33;7.50;;;;;;;;;;6212960;28;20229;-72
2023/09/26 08:07:23;;;;;;;8.63;7.60;;;;;;;;;;6230171;28;20223;-72
2023/09/26 08:10:24;;;;;;;9.30;7.63;;;;;;;;;;6193219;28;20199;-72
2023/09/26 08:13:25;;;;;;;9.63;7.83;;;;;;;;;;6212678;28;20195;-72
2023/09/26 08:16:26;;;;;;;8.20;7.40;;;;;;;;;;6221128;28;20204;-72
2023/09/26 08:19:27;;;;;;;11.70;8.30;;;;;;;;;;6195344;28;20206;-72
2023/09/26 08:22:28;;;;;;;10.67;8.23;;;;;;;;;;6200689;28;20222;-72
2023/09/26 08:25:30;;;;;;;9.17;8.27;;;;;;;;;;6201689;28;20244;-72
2023/09/26 08:28:32;;;;;;;9.30;8.43;;;;;;;;;;6197018;28;20206;-72
2023/09/26 08:31:35;;;;;;;8.90;8.03;;;;;;;;;;6212746;28;20266;-72
2023/09/26 08:34:36;;;;;;;10.40;8.77;;;;;;;;;;6203217;28;20199;-72
2023/09/26 08:37:41;;;;;;;9.07;8.10;;;;;;;;;;6205127;28;20221;-72
2023/09/26 08:40:42;;;;;;;8.30;7.27;;;;;;;;;;6202423;28;20200;-72
2023/09/26 08:43:44;;;;;;;8.50;7.63;;;;;;;;;;6220553;28;20241;-72
2023/09/26 08:46:45;;;;;;;8.70;7.80;;;;;;;;;;6221004;28;20192;-72
2023/09/26 08:49:47;;;;;;;8.90;7.43;;;;;;;;;;6207793;28;20198;-72
2023/09/26 08:52:48;;;;;;;9.00;8.10;;;;;;;;;;6194967;28;20211;-72
2023/09/26 08:55:49;;;;;;;9.00;8.07;;;;;;;;;;6205571;28;20242;-72
2023/09/26 08:58:52;;;;;;;7.37;6.63;;;;;;;;;;6209932;28;20187;-72
2023/09/26 09:01:54;;;;;;;8.20;7.40;;;;;;;;;;6233610;28;20202;-72
2023/09/26 09:04:55;;;;;;;11.93;7.77;;;;;;;;;;6223452;28;20239;-72
2023/09/26 09:07:56;;;;;;;8.70;7.80;;;;;;;;;;6220704;28;20199;-72
2023/09/26 09:10:57;;;;;;;8.07;7.27;;;;;;;;;;6216842;28;20279;-72
2023/09/26 09:13:58;;;;;;;8.40;7.60;;;;;;;;;;6205488;28;20195;-72
2023/09/26 09:16:59;;;;;;;8.73;7.60;;;;;;;;;;6205113;28;20227;-72
2023/09/26 09:20:00;;;;;;;9.73;7.90;;;;;;;;;;6210601;28;20204;-72
2023/09/26 09:23:03;;;;;;;9.70;8.07;;;;;;;;;;6207794;28;20211;-72
2023/09/26 09:26:12;;;;;;;8.03;7.17;;;;;;;;;;6219914;28;20234;-72
2023/09/26 09:29:17;;;;;;;12.43;7.57;;;;;;;;;;6228580;28;20191;-72
2023/09/26 09:32:18;;;;;;;12.30;7.10;;;;;;;;;;6216085;28;20196;-72
2023/09/26 09:35:19;;;;;;;7.57;6.80;;;;;;;;;;6205226;28;20199;-72
2023/09/26 09:38:20;;;;;;;7.40;6.70;;;;;;;;;;6211175;28;20191;-72
2023/09/26 09:41:21;;;;;;;7.57;6.87;;;;;;;;;;6209873;28;20187;-72
2023/09/26 09:44:23;;;;;;;8.03;5.93;;;;;;;;;;6196999;28;20215;-72
2023/09/26 09:47:25;;;;;;;6.77;6.17;;;;;;;;;;6215665;28;20187;-72
2023/09/26 09:50:27;;;;;;;7.87;6.17;;;;;;;;;;6203071;28;20191;-72
2023/09/26 09:53:29;;;;;;;7.83;7.03;;;;;;;;;;6217344;28;20276;-72
2023/09/26 09:56:34;;;;;;;7.30;5.90;;;;;;;;;;6201139;28;20196;-72
2023/09/26 09:59:36;;;;;;;7.73;6.13;;;;;;;;;;6223760;28;20208;-72
2023/09/26 10:02:38;;;;;;;6.97;6.27;;;;;;;;;;6217546;28;20210;-72
2023/09/26 10:05:40;;;;;;;7.17;6.47;;;;;;;;;;6218626;28;20215;-72
2023/09/26 10:08:41;;;;;;;7.17;6.47;;;;;;;;;;6208210;28;20195;-72
2023/09/26 10:11:43;;;;;;;7.73;6.30;;;;;;;;;;6219849;28;20216;-72
2023/09/26 10:14:44;;;;;;;7.17;6.37;;;;;;;;;;6202728;28;20343;-72
2023/09/26 10:17:48;;;;;;;6.70;6.00;;;;;;;;;;6206562;28;20246;-72
2023/09/26 10:20:49;;;;;;;6.90;6.30;;;;;;;;;;6224865;28;20200;-72
2023/09/26 10:24:06;;;;;;;7.10;6.40;;;;;;;;;;6190158;28;20935;-72
2023/09/26 10:27:10;;;;;;;9.07;6.17;;;;;;;;;;6216806;28;20255;-72
2023/09/26 10:30:11;;;;;;;9.23;5.93;;;;;;;;;;6209781;28;20207;-72
2023/09/26 10:33:13;;;;;;;7.47;5.97;;;;;;;;;;6216763;28;20190;-72
2023/09/26 10:36:14;;;;;;;8.90;5.90;;;18.60;81.90;;;;;;6220315;28;20198;-72
2023/09/26 10:39:14;;;;;;;7.57;6.30;;;18.50;79.70;;;;;;6183709;28;20191;-72
2023/09/26 10:42:21;;;;;;;6.70;6.10;;;18.60;79.70;;;;;;6184067;28;20195;-72
2023/09/26 10:45:21;;;;;;;6.63;5.90;;;18.60;81.50;;;;;;6218066;28;20192;-72
2023/09/26 10:48:22;;;;;;;9.10;6.57;;;18.60;82.30;;;;;;6203049;28;20279;-72
2023/09/26 10:51:23;;;;;;;8.43;6.10;;;18.70;82.60;;;;;;6181454;28;20188;-72
2023/09/26 10:54:24;;;;;;;9.10;6.97;;;18.70;83.00;;;;;;6207641;28;20222;-72
2023/09/26 10:57:25;;;;;;;6.87;6.27;;;18.80;82.90;;;;;;6214119;28;20198;-72
2023/09/26 11:00:26;;;;;;;7.30;6.60;;;18.90;83.20;;;;;;6189272;28;20195;-72
2023/09/26 11:03:29;;;;;;;7.27;6.17;;;19.00;79.50;;;;;;6199722;28;20210;-72
2023/09/26 11:06:30;;;;;;;9.17;6.57;;;19.10;80.30;;;;;;6218534;28;20184;-72
2023/09/26 11:09:30;;;;;;;8.80;6.07;;;19.20;80.80;;;;;;6200298;28;20193;-72
2023/09/26 11:12:32;;;;;;;10.23;6.10;;;19.30;80.40;;;;;;6191948;28;20191;-72
2023/09/26 11:15:32;;;;;;;6.87;6.20;;;19.40;80.50;;;;;;6217870;28;20276;-72
2023/09/26 11:18:33;;;;;;;9.10;6.40;;;19.40;80.50;;;;;;6184296;28;20233;-72
2023/09/26 11:21:34;;;;;;;5.63;4.97;;;19.50;77.50;;;;;;6193512;28;20238;-72
2023/09/26 11:24:35;;;;;;;8.50;5.83;;;;;;;;;;6195658;28;20219;-72
2023/09/26 11:27:43;;;;;;;7.83;5.17;;;;;;;;;;6186677;28;20200;-72
2023/09/26 11:30:44;;;;;;;8.10;5.83;;;;;;;;;;6228281;28;20184;-72
2023/09/26 11:33:45;;;;;;;6.43;5.67;;;;;;;;;;6196114;28;20277;-72
2023/09/26 11:36:50;;;;;;;6.10;5.07;;;;;;;;;;6204799;28;20260;-73
2023/09/26 11:39:52;;;;;;;7.67;5.90;;;;;;;;;;6218738;28;20200;-72
2023/09/26 11:42:55;;;;;;;8.47;5.73;;;;;;;;;;6224234;28;20272;-72
2023/09/26 11:46:02;;;;;;;6.70;5.90;;;;;;;;;;6215604;28;20192;-72
2023/09/26 11:49:03;;;;;;;8.53;5.30;;;;;;;;;;6218017;28;20202;-72
2023/09/26 11:52:05;;;;;;;8.27;5.53;;;;;;;;;;6197704;28;20199;-72
2023/09/26 11:55:06;;;;;;;8.63;5.30;;;;;;;;;;6212152;28;20248;-72
2023/09/26 11:58:08;;;;;;;5.60;5.03;;;;;;;;;;6205701;28;20203;-72
2023/09/26 12:01:09;;;;;;;7.27;5.17;;;;;;;;;;6205880;28;20195;-72
2023/09/26 12:04:13;;;;;;;6.20;5.63;;;;;;;;;;6205421;28;20313;-72
2023/09/26 12:07:14;;;;;;;7.60;5.40;;;19.70;77.70;;;;;;6206251;28;20195;-72
2023/09/26 12:10:15;;;;;;;6.07;5.47;;;22.50;66.20;;;;;;6216789;28;20192;-71
2023/09/26 12:13:16;;;;;;;10.90;5.73;;;;;;;;;;6221294;28;20249;-73
2023/09/26 12:16:17;;;;;;;8.93;5.27;;;;;;;;;;6205060;28;20187;-73
2023/09/26 12:19:19;;;;;;;7.43;4.00;;;;;;;;;;6209812;28;20249;-75
2023/09/26 12:22:20;;;;;;;6.00;4.30;;;;;;;;;;6212991;28;20265;-71
2023/09/26 12:25:22;;;;;;;7.37;4.00;;;;;;;;;;6198280;28;20234;-72
2023/09/26 12:28:23;;;;;;;7.07;3.90;;;30.00;46.50;;;;;;6218091;28;20195;-71
2023/09/26 12:31:24;;;;;;;6.33;4.07;;;;;;;;;;6203938;28;20194;-71
2023/09/26 12:34:25;;;;;;;7.97;4.27;;;33.40;40.50;;;;;;6229228;28;20215;-72
2023/09/26 12:37:26;;;;;;;5.97;3.73;;;33.80;40.10;;;;;;6181054;28;20201;-72
2023/09/26 12:40:27;;;;;;;7.78;3.95;;;33.50;42.20;;;;;;6203905;28;20196;-72
2023/09/26 12:43:28;;;;;;;8.17;4.20;;;;;;;;;;6209396;28;20333;-72
2023/09/26 12:46:28;;;;;;;8.33;4.37;;;32.80;45.30;;;;;;6215063;28;20194;-71
2023/09/26 12:49:29;;;;;;;5.50;4.20;;;;;;;;;;6191166;28;20203;-71
2023/09/26 12:52:31;;;;;;;4.40;4.00;;;29.10;49.30;;;;;;6208511;28;20194;-71
2023/09/26 12:55:32;;;;;;;7.27;4.40;;;28.70;50.90;;;;;;6192807;28;20202;-71
2023/09/26 12:58:33;;;;;;;7.57;4.47;;;;;;;;;;6195635;28;20190;-71
2023/09/26 13:01:34;;;;;;;6.90;4.17;;;;;;;;;;6200867;28;20210;-71
2023/09/26 13:04:35;;;;;;;9.83;5.23;;;28.10;52.20;;;;;;6205260;28;20233;-72
2023/09/26 13:07:37;;;;;;;9.97;4.80;;;26.80;49.60;;;;;;6229021;28;20211;-71
2023/09/26 13:10:38;;;;;;;8.20;4.43;;;26.70;50.00;;;;;;6201376;28;20214;-72
2023/09/26 13:13:38;;;;;;;8.40;4.90;;;27.40;51.40;;;;;;6197742;28;20192;-72
2023/09/26 13:16:39;;;;;;;7.07;4.53;;;;;;;;;;6233134;28;20253;-73
2023/09/26 13:19:41;;;;;;;5.63;3.90;;;31.20;44.00;;;;;;6221853;28;20195;-72
2023/09/26 13:22:42;;;;;;;5.57;3.80;;;32.80;42.10;;;;;;6197620;28;20214;-72
2023/09/26 13:25:43;;;;;;;3.83;3.53;;;-16.00;38.60;;;;;;6185679;28;20234;-72
2023/09/26 13:28:44;;;;;;;4.50;3.80;;;;;;;;;;6208729;28;20221;-71
2023/09/26 13:31:46;;;;;;;8.38;4.22;;;;;;;;;;6205969;28;20216;-70
2023/09/26 13:34:47;;;;;;;9.82;3.97;;;;;;;;;;6208038;28;20190;-71
2023/09/26 13:37:48;;;;;;;8.15;3.47;;;36.60;38.20;;;;;;6189124;28;20215;-68
2023/09/26 13:40:48;;;;;;;6.85;3.88;;;39.00;34.30;;;;;;6188616;28;20186;-68
2023/09/26 13:43:49;;;;;;;5.22;3.65;;;;;;;;;;6190360;28;20216;-67
2023/09/26 13:46:50;;;;;;;8.13;4.20;;;;;;;;;;6214288;28;20198;-66
2023/09/26 13:50:01;;;;;;;5.10;3.87;;;36.50;38.30;;;;;;6206657;28;20194;-67
2023/09/26 13:53:02;;;;;;;4.13;3.43;;;30.80;44.20;;;;;;6180929;28;20199;-69
2023/09/26 13:56:03;;;;;;;6.43;4.37;;;;;;;;;;6176297;28;20199;-68
2023/09/26 13:59:04;;;;;;;5.27;3.83;;;30.40;45.60;;;;;;6207144;28;20190;-68
2023/09/26 14:02:05;;;;;;;6.47;4.13;;;11.10;46.60;;;;;;6182163;28;20356;-68
2023/09/26 14:05:06;;;;;;;6.87;3.70;;;29.70;47.40;;;;;;6196838;28;20250;-68
2023/09/26 14:08:07;;;;;;;7.33;3.93;;;;;;;;;;6206262;28;20188;-68
2023/09/26 14:11:08;;;;;;;9.10;3.60;;;;;;;;;;6236910;28;20216;-69
2023/09/26 14:14:08;;;;;;;6.00;4.00;;;29.30;46.20;;;;;;6208012;28;20191;-68
2023/09/26 14:17:09;;;;;;;7.60;4.07;;;29.40;46.60;;;;;;6193029;28;20277;-69
2023/09/26 14:20:10;;;;;;;6.70;3.67;;;;;;;;;;6186101;28;20191;-68
2023/09/26 14:23:11;;;;;;;6.63;4.37;;;30.30;42.50;;;;;;6222596;28;20223;-68
2023/09/26 14:26:12;;;;;;;5.27;3.33;;;;;;;;;;6213976;28;20230;-69
2023/09/26 14:29:14;;;;;;;6.45;3.88;;;;;;;;;;6215722;28;20192;-69
2023/09/26 14:32:14;;;;;;;9.63;4.20;;;31.30;43.30;;;;;;6212476;28;20275;-69
2023/09/26 14:35:15;;;;;;;4.75;3.50;;;;;;;;;;6189148;28;20199;-69
2023/09/26 14:38:16;;;;;;;11.40;3.92;;;;;;;;;;6196101;28;20278;-69
2023/09/26 14:41:17;;;;;;;5.18;3.50;;;;;;;;;;6214436;28;20191;-69
2023/09/26 14:44:18;;;;;;;7.45;3.70;;;;;;;;;;6208150;28;20265;-69
2023/09/26 14:47:19;;;;;;;6.05;4.05;;;;;;;;;;6207887;28;20187;-69
2023/09/26 14:50:21;;;;;;;9.73;3.80;;;;;;;;;;6219305;28;20199;-69
2023/09/26 14:53:22;;;;;;;7.68;3.80;;;;;;;;;;6209392;28;20194;-69
2023/09/26 14:56:23;;;;;;;6.10;3.83;;;;;;;;;;6224412;28;20182;-69
2023/09/26 14:59:24;;;;;;;5.40;3.75;;;;;;;;;;6206709;28;20646;-69
2023/09/26 15:02:25;;;;;;;5.93;3.47;;;;;;;;;;6197172;28;20192;-70
2023/09/26 15:05:26;;;;;;;5.87;3.97;;;;;;;;;;6210728;28;20199;-69
2023/09/26 15:08:27;;;;;;;7.77;4.17;;;;;;;;;;6222558;28;20191;-69
2023/09/26 15:11:28;;;;;;;7.90;4.00;;;;;;;;;;6224663;28;20199;-69
2023/09/26 15:14:29;;;;;;;8.40;3.60;;;;;;;;;;6204181;28;20203;-70
2023/09/26 15:17:30;;;;;;;7.03;4.10;;;31.40;44.70;;;;;;6207579;28;20248;-69
2023/09/26 15:20:30;;;;;;;5.77;3.90;;;31.10;46.10;;;;;;6208974;28;20199;-69
2023/09/26 15:23:31;;;;;;;5.40;3.80;;;30.80;46.60;;;;;;6193499;28;20214;-69
2023/09/26 15:26:32;;;;;;;9.47;4.23;;;30.50;46.70;;;;;;6206705;28;20257;-69
2023/09/26 15:29:33;;;;;;;7.70;4.03;;;;;;;;;;6198195;28;20198;-69
2023/09/26 15:32:34;;;;;;;7.20;4.60;;;;;;;;;;6213176;28;20187;-70
2023/09/26 15:35:41;;;;;;;4.07;3.60;;;30.00;47.70;;;;;;6203093;28;20199;-69
2023/09/26 15:38:43;;;;;;;6.77;4.40;;;;;;;;;;6224358;28;20239;-69
2023/09/26 15:41:44;;;;;;;9.57;4.13;;;;;;;;;;6205745;28;20199;-69
2023/09/26 15:44:46;;;;;;;8.83;5.07;;;27.40;53.70;;;;;;6219658;28;20308;-69
2023/09/26 15:47:47;;;;;;;7.07;4.13;;;26.90;55.30;;;;;;6200617;28;20247;-69
2023/09/26 15:50:48;;;;;;;7.40;4.20;;;;;;;;;;6207342;28;20190;-70
2023/09/26 15:53:49;;;;;;;50.43;33.80;;;26.50;55.50;;;;;;6187010;28;20208;-70
2023/09/26 15:56:50;;;;;;;9.30;5.07;;;;;;;;;;6181241;28;20195;-69
2023/09/26 15:59:51;;;;;;;10.57;5.33;;;;;;;;;;6216341;28;20196;-70
2023/09/26 16:02:52;;;;;;;6.70;5.03;;;;;;;;;;6203769;28;20225;-70
2023/09/26 16:05:53;;;;;;;9.33;7.43;;;;;;;;;;6201588;28;20194;-68
2023/09/26 16:08:54;;;;;;;14.07;9.30;;;;;;;;;;6199423;28;20204;-68
2023/09/26 16:11:55;;;;;;;14.33;8.83;;;;;;;;;;6222196;28;20213;-69
2023/09/26 16:14:56;;;;;;;9.80;8.37;;;23.80;65.20;;;;;;6185267;28;20199;-70
2023/09/26 16:17:59;;;;;;;12.23;7.60;;;23.50;65.70;;;;;;6169914;28;20203;-69
2023/09/26 16:21:00;;;;;;;9.37;6.33;;;23.30;66.60;;;;;;6177378;28;20202;-69
2023/09/26 16:24:00;;;;;;;8.23;6.10;;;23.10;66.40;;;;;;6190388;28;20227;-68
2023/09/26 16:27:01;;;;;;;7.07;5.93;;;22.90;67.90;;;;;;6181439;28;20236;-69
2023/09/26 16:30:02;;;;;;;6.17;5.57;;;22.70;68.30;;;;;;6211883;28;20190;-69
2023/09/26 16:33:03;;;;;;;15.23;8.93;;;22.50;68.70;;;;;;6189068;28;20268;-68
2023/09/26 16:36:17;;;;;;;8.83;5.40;;;22.30;69.10;;;;;;6187035;28;20188;-68
2023/09/26 16:39:18;;;;;;;8.23;5.87;;;22.00;69.20;;;;;;6191474;28;20199;-68
2023/09/26 16:42:22;;;;;;;10.03;6.53;;;21.70;71.20;;;;;;6191411;28;20257;-68
2023/09/26 16:45:23;;;;;;;7.40;5.93;;;21.50;71.50;;;;;;6193664;28;20285;-68
2023/09/26 16:48:24;;;;;;;7.13;5.77;;;21.30;71.80;;;;;;6193899;28;20196;-68
2023/09/26 16:51:24;;;;;;;7.23;5.43;;;21.10;73.20;;;;;;6206441;28;20273;-68
2023/09/26 16:54:25;;;;;;;6.70;5.67;;;20.90;73.70;;;;;;6192379;28;20226;-69
2023/09/26 16:57:26;;;;;;;9.37;6.23;;;20.70;74.10;;;;;;6198898;28;20201;-69
2023/09/26 17:00:27;;;;;;;14.47;7.90;;;20.60;74.40;;;;;;6201761;28;20206;-68
2023/09/26 17:03:27;;;;;;;6.67;6.03;;;20.40;75.80;;;;;;6189779;28;20250;-68
2023/09/26 17:06:28;;;;;;;6.43;5.90;;;20.30;76.10;;;;;;6187827;28;20197;-69
2023/09/26 17:09:30;;;;;;;15.73;7.33;;;;;;;;;;6205954;28;20245;-68
2023/09/26 17:12:31;;;;;;;8.20;6.63;;;;;;;;;;6207313;28;20187;-70
2023/09/26 17:15:32;;;;;;;8.57;6.80;;;;;;;;;;6205464;28;20641;-68
2023/09/26 17:18:34;;;;;;;9.63;6.63;;;;;;;;;;6209629;28;20202;-69
2023/09/26 17:21:35;;;;;;;8.87;6.57;;;;;;;;;;6201280;28;20184;-69
2023/09/26 17:24:36;;;;;;;7.20;5.87;;;;;;;;;;6201771;28;20227;-70
2023/09/26 17:27:37;;;;;;;11.07;6.27;;;24.00;50.00;;;;;;6218015;28;20201;-69
2023/09/26 17:30:38;;;;;;;11.33;6.80;;;19.40;79.10;;;;;;6199965;28;20222;-70